createdAt,value
2022-08-20T00:01:01.602Z,76.20
2022-08-20T00:03:31.480Z,76.30
2022-08-20T00:06:00.489Z,76.30
2022-08-20T00:08:28.041Z,76.50
2022-08-20T00:10:55.826Z,76.60
2022-08-20T00:13:28.196Z,76.70
2022-08-20T00:15:55.676Z,76.70
2022-08-20T00:18:23.153Z,76.80
2022-08-20T00:20:51.431Z,76.90
2022-08-20T00:23:18.798Z,77.20
2022-08-20T00:25:45.694Z,77.30
2022-08-20T00:28:13.125Z,77.40
2022-08-20T00:30:40.855Z,77.50
2022-08-20T00:33:10.060Z,77.60
2022-08-20T00:35:38.203Z,77.90
2022-08-20T00:38:05.145Z,77.70
2022-08-20T00:40:43.867Z,77.70
2022-08-20T00:43:30.084Z,77.70
2022-08-20T00:45:57.534Z,77.70
2022-08-20T00:48:30.515Z,77.80
2022-08-20T00:51:01.505Z,77.80
2022-08-20T00:53:28.591Z,77.70
2022-08-20T00:55:55.756Z,77.80
2022-08-20T00:58:22.580Z,77.80
2022-08-20T01:00:49.903Z,78.00
2022-08-20T01:03:18.018Z,77.90
2022-08-20T01:05:46.578Z,77.50
2022-08-20T01:08:14.133Z,77.20
2022-08-20T01:10:42.000Z,77.10
2022-08-20T01:13:11.059Z,77.10
2022-08-20T01:15:42.993Z,77.20
2022-08-20T01:18:12.321Z,77.50
2022-08-20T01:20:44.396Z,77.80
2022-08-20T01:23:32.447Z,78.20
2022-08-20T01:26:03.829Z,78.40
2022-08-20T01:28:36.065Z,78.40
2022-08-20T01:31:03.716Z,78.60
2022-08-20T01:33:32.051Z,78.80
2022-08-20T01:35:59.170Z,79.20
2022-08-20T01:38:26.597Z,79.40
2022-08-20T01:40:53.295Z,79.50
2022-08-20T01:43:22.049Z,79.70
2022-08-20T01:45:49.896Z,79.90
2022-08-20T01:48:17.447Z,80.00
2022-08-20T01:50:47.785Z,80.00
2022-08-20T01:53:20.982Z,80.00
2022-08-20T01:55:47.827Z,79.80
2022-08-20T01:58:14.639Z,79.90
2022-08-20T02:00:41.443Z,79.90
2022-08-20T02:03:08.781Z,80.00
2022-08-20T02:05:35.990Z,80.30
2022-08-20T02:08:02.902Z,80.40
2022-08-20T02:10:31.542Z,80.40
2022-08-20T02:12:59.430Z,80.30
2022-08-20T02:15:34.934Z,80.40
2022-08-20T02:18:05.705Z,80.20
2022-08-20T02:20:35.889Z,80.20
2022-08-20T02:23:05.399Z,80.10
2022-08-20T02:25:33.823Z,80.00
2022-08-20T02:28:05.373Z,80.00
2022-08-20T02:30:33.772Z,79.90
2022-08-20T02:33:01.298Z,79.80
2022-08-20T02:35:30.899Z,79.80
2022-08-20T02:37:58.532Z,79.70
2022-08-20T02:40:30.092Z,79.60
2022-08-20T02:43:01.710Z,79.60
2022-08-20T02:45:29.046Z,79.50
2022-08-20T02:47:57.368Z,79.50
2022-08-20T02:50:26.061Z,79.50
2022-08-20T02:52:53.061Z,79.60
2022-08-20T02:55:27.108Z,79.80
2022-08-20T02:57:57.897Z,79.90
2022-08-20T03:00:27.291Z,80.00
2022-08-20T03:02:54.084Z,80.10
2022-08-20T03:05:21.096Z,80.10
2022-08-20T03:07:50.295Z,80.20
2022-08-20T03:10:17.255Z,80.20
2022-08-20T03:12:44.050Z,80.30
2022-08-20T03:15:17.833Z,80.40
2022-08-20T03:17:45.217Z,80.50
2022-08-20T03:20:12.265Z,80.50
2022-08-20T03:22:39.288Z,80.50
2022-08-20T03:25:06.767Z,80.40
2022-08-20T03:27:36.175Z,80.20
2022-08-20T03:30:07.681Z,80.30
2022-08-20T03:32:34.565Z,80.20
2022-08-20T03:35:01.313Z,79.90
2022-08-20T03:37:31.783Z,79.80
2022-08-20T03:39:59.162Z,79.80
2022-08-20T03:42:26.398Z,79.70
2022-08-20T03:44:59.236Z,79.80
2022-08-20T03:47:26.508Z,79.80
2022-08-20T03:49:57.642Z,80.10
2022-08-20T03:52:24.368Z,80.00
2022-08-20T03:54:51.121Z,79.60
2022-08-20T03:57:17.889Z,79.50
2022-08-20T03:59:44.646Z,79.30
2022-08-20T04:02:12.303Z,79.30
2022-08-20T04:04:40.683Z,79.40
2022-08-20T04:07:15.272Z,79.40
2022-08-20T04:09:43.709Z,79.60
2022-08-20T04:12:12.989Z,79.80
2022-08-20T04:14:40.315Z,79.90
2022-08-20T04:17:08.808Z,80.10
2022-08-20T04:19:36.322Z,80.10
2022-08-20T04:22:03.230Z,80.00
2022-08-20T04:24:32.540Z,79.90
2022-08-20T04:27:00.465Z,79.70
2022-08-20T04:29:32.013Z,79.70
2022-08-20T04:32:00.715Z,79.70
2022-08-20T04:34:30.142Z,79.60
2022-08-20T04:36:56.914Z,79.60
2022-08-20T04:39:23.814Z,79.70
2022-08-20T04:41:50.592Z,79.80
2022-08-20T04:44:17.372Z,79.60
2022-08-20T04:46:44.132Z,79.70
2022-08-20T04:49:11.017Z,79.80
2022-08-20T04:51:37.773Z,79.80
2022-08-20T04:54:04.694Z,79.70
2022-08-20T04:56:34.807Z,79.80
2022-08-20T04:59:01.935Z,79.80
2022-08-20T05:01:28.958Z,80.10
2022-08-20T05:03:56.097Z,80.20
2022-08-20T05:06:25.756Z,80.10
2022-08-20T05:08:53.656Z,80.20
2022-08-20T05:11:35.677Z,80.20
2022-08-20T05:14:08.550Z,80.40
2022-08-20T05:16:39.555Z,80.60
2022-08-20T05:19:08.789Z,80.60
2022-08-20T05:21:35.868Z,80.40
2022-08-20T05:24:02.947Z,80.30
2022-08-20T05:26:29.720Z,80.20
2022-08-20T05:28:58.591Z,80.20
2022-08-20T05:31:32.512Z,80.40
2022-08-20T05:34:10.986Z,80.30
2022-08-20T05:36:45.568Z,80.20
2022-08-20T05:39:14.983Z,80.10
2022-08-20T05:41:41.728Z,80.10
2022-08-20T05:44:10.944Z,80.00
2022-08-20T05:46:41.343Z,79.80
2022-08-20T05:49:09.290Z,79.80
2022-08-20T05:51:37.068Z,79.80
2022-08-20T05:54:04.358Z,79.70
2022-08-20T05:56:31.307Z,79.70
2022-08-20T05:58:59.984Z,79.70
2022-08-20T06:01:26.829Z,79.70
2022-08-20T06:04:12.380Z,79.60
2022-08-20T06:06:46.227Z,79.50
2022-08-20T06:09:14.882Z,79.50
2022-08-20T06:11:41.605Z,79.50
2022-08-20T06:14:08.379Z,79.40
2022-08-20T06:16:37.349Z,79.30
2022-08-20T06:19:05.059Z,79.20
2022-08-20T06:21:32.329Z,79.00
2022-08-20T06:24:02.582Z,79.00
2022-08-20T06:26:30.328Z,79.00
2022-08-20T06:29:01.313Z,79.10
2022-08-20T06:31:28.462Z,79.10
2022-08-20T06:33:55.318Z,79.10
2022-08-20T06:36:22.073Z,79.00
2022-08-20T06:38:48.876Z,78.90
2022-08-20T06:41:16.575Z,78.70
2022-08-20T06:43:43.344Z,78.40
2022-08-20T06:46:10.871Z,78.30
2022-08-20T06:48:38.132Z,78.20
2022-08-20T06:51:06.797Z,78.00
2022-08-20T06:53:33.629Z,77.70
2022-08-20T06:56:00.439Z,77.50
2022-08-20T06:58:36.823Z,77.30
2022-08-20T07:01:10.608Z,77.00
2022-08-20T07:03:55.431Z,76.80
2022-08-20T07:06:27.864Z,76.90
2022-08-20T07:08:55.748Z,76.10
2022-08-20T07:11:27.314Z,75.20
2022-08-20T07:13:56.715Z,74.30
2022-08-20T07:16:23.940Z,73.10
2022-08-20T07:18:50.715Z,72.20
2022-08-20T07:21:17.567Z,71.70
2022-08-20T07:23:44.643Z,71.40
2022-08-20T07:26:11.387Z,71.40
2022-08-20T07:28:38.150Z,71.60
2022-08-20T07:31:23.601Z,71.60
2022-08-20T07:33:50.650Z,71.30
2022-08-20T07:36:17.758Z,71.40
2022-08-20T07:38:47.249Z,71.40
2022-08-20T07:41:15.109Z,71.50
2022-08-20T07:43:44.395Z,71.70
2022-08-20T07:46:12.295Z,72.20
2022-08-20T07:48:40.363Z,72.60
2022-08-20T07:51:08.034Z,73.00
2022-08-20T07:53:37.023Z,72.80
2022-08-20T07:56:08.254Z,73.30
2022-08-20T07:58:38.881Z,73.50
2022-08-20T08:01:06.513Z,73.50
2022-08-20T08:03:40.449Z,73.30
2022-08-20T08:06:19.943Z,72.50
2022-08-20T08:09:13.961Z,72.10
2022-08-20T08:11:46.954Z,71.80
2022-08-20T08:14:16.154Z,71.70
2022-08-20T08:16:45.451Z,71.80
2022-08-20T08:19:15.362Z,71.80
2022-08-20T08:21:42.177Z,71.70
2022-08-20T08:24:12.701Z,70.60
2022-08-20T08:26:41.258Z,69.40
2022-08-20T08:29:12.402Z,68.10
2022-08-20T08:31:41.021Z,67.50
2022-08-20T08:34:08.122Z,67.40
2022-08-20T08:36:34.935Z,68.00
2022-08-20T08:39:01.822Z,68.00
2022-08-20T08:41:31.860Z,67.70
2022-08-20T08:44:10.974Z,68.10
2022-08-20T08:46:45.040Z,67.80
2022-08-20T08:49:14.518Z,67.30
2022-08-20T08:51:49.192Z,67.70
2022-08-20T08:54:20.571Z,67.20
2022-08-20T08:56:49.732Z,66.50
2022-08-20T08:59:17.741Z,66.10
2022-08-20T09:01:54.614Z,66.20
2022-08-20T09:04:28.517Z,65.70
2022-08-20T09:06:55.318Z,65.40
2022-08-20T09:09:27.299Z,65.40
2022-08-20T09:11:55.486Z,65.40
2022-08-20T09:14:24.889Z,64.70
2022-08-20T09:16:52.754Z,64.80
2022-08-20T09:19:20.597Z,64.20
2022-08-20T09:21:47.363Z,63.70
2022-08-20T09:24:14.194Z,64.40
2022-08-20T09:26:41.857Z,64.40
2022-08-20T09:29:08.708Z,63.90
2022-08-20T09:31:35.671Z,63.50
2022-08-20T09:34:05.163Z,62.40
2022-08-20T09:36:32.907Z,61.10
2022-08-20T09:39:00.468Z,60.70
2022-08-20T09:41:27.310Z,60.70
2022-08-20T09:43:54.591Z,61.00
2022-08-20T09:46:27.217Z,60.50
2022-08-20T09:48:54.669Z,60.70
2022-08-20T09:51:21.817Z,61.10
2022-08-20T09:53:49.122Z,61.10
2022-08-20T09:56:16.649Z,59.60
2022-08-20T09:58:51.014Z,58.50
2022-08-20T10:01:20.201Z,57.40
2022-08-20T10:03:48.985Z,56.90
2022-08-20T10:06:17.891Z,55.80
2022-08-20T10:08:44.699Z,55.00
2022-08-20T10:11:11.672Z,54.50
2022-08-20T10:13:38.397Z,54.50
2022-08-20T10:16:05.392Z,53.80
2022-08-20T10:18:32.270Z,54.10
2022-08-20T10:20:59.150Z,53.80
2022-08-20T10:23:26.219Z,52.50
2022-08-20T10:25:53.046Z,52.20
2022-08-20T10:28:19.956Z,51.00
2022-08-20T10:30:47.064Z,51.20
2022-08-20T10:33:13.998Z,50.60
2022-08-20T10:35:41.002Z,50.60
2022-08-20T10:38:07.959Z,51.10
2022-08-20T10:40:35.125Z,51.20
2022-08-20T10:43:03.213Z,51.20
2022-08-20T10:45:30.060Z,51.40
2022-08-20T10:48:00.351Z,51.30
2022-08-20T10:50:30.213Z,51.10
2022-08-20T10:52:58.146Z,51.00
2022-08-20T10:55:25.056Z,50.50
2022-08-20T10:57:52.107Z,50.30
2022-08-20T11:00:19.093Z,50.20
2022-08-20T11:02:45.930Z,50.20
2022-08-20T11:05:12.994Z,50.40
2022-08-20T11:07:55.376Z,51.20
2022-08-20T11:10:25.154Z,51.10
2022-08-20T11:12:52.374Z,51.00
2022-08-20T11:15:19.184Z,51.00
2022-08-20T11:17:47.051Z,49.60
2022-08-20T11:20:14.967Z,49.00
2022-08-20T11:22:41.764Z,49.10
2022-08-20T11:25:09.661Z,49.00
2022-08-20T11:27:41.551Z,48.60
2022-08-20T11:30:10.643Z,48.30
2022-08-20T11:32:37.641Z,48.80
2022-08-20T11:35:19.174Z,49.10
2022-08-20T11:37:52.439Z,49.10
2022-08-20T11:40:22.268Z,48.60
2022-08-20T11:43:13.010Z,48.10
2022-08-20T11:45:37.473Z,47.80
2022-08-20T11:48:05.264Z,47.80
2022-08-20T11:50:32.956Z,48.30
2022-08-20T11:53:01.199Z,48.10
2022-08-20T11:55:32.659Z,48.60
2022-08-20T11:58:00.837Z,48.70
2022-08-20T12:00:32.127Z,48.90
2022-08-20T12:03:05.495Z,48.90
2022-08-20T12:05:32.743Z,48.70
2022-08-20T12:08:03.063Z,48.50
2022-08-20T12:10:30.039Z,48.90
2022-08-20T12:12:57.105Z,49.30
2022-08-20T12:15:25.387Z,48.80
2022-08-20T12:17:52.554Z,48.10
2022-08-20T12:20:19.800Z,47.80
2022-08-20T12:22:46.668Z,47.90
2022-08-20T12:25:13.523Z,47.30
2022-08-20T12:27:41.119Z,46.80
2022-08-20T12:30:10.143Z,47.00
2022-08-20T12:32:36.933Z,47.10
2022-08-20T12:35:04.800Z,47.10
2022-08-20T12:37:32.021Z,47.60
2022-08-20T12:39:59.810Z,48.30
2022-08-20T12:42:27.405Z,48.60
2022-08-20T12:44:54.140Z,48.80
2022-08-20T12:47:23.044Z,48.60
2022-08-20T12:49:54.934Z,48.50
2022-08-20T12:52:22.600Z,47.70
2022-08-20T12:54:49.679Z,47.50
2022-08-20T12:57:28.334Z,47.30
2022-08-20T12:59:56.523Z,46.90
2022-08-20T13:02:26.008Z,46.90
2022-08-20T13:04:52.809Z,46.70
2022-08-20T13:07:19.747Z,46.80
2022-08-20T13:09:46.532Z,46.90
2022-08-20T13:12:14.461Z,46.70
2022-08-20T13:14:41.630Z,46.50
2022-08-20T13:17:09.016Z,46.60
2022-08-20T13:19:36.658Z,46.80
2022-08-20T13:22:04.009Z,46.50
2022-08-20T13:24:30.807Z,46.50
2022-08-20T13:27:06.614Z,46.10
2022-08-20T13:29:33.590Z,44.70
2022-08-20T13:32:00.385Z,44.40
2022-08-20T13:34:27.150Z,43.70
2022-08-20T13:36:55.362Z,43.10
2022-08-20T13:39:22.897Z,42.80
2022-08-20T13:41:50.069Z,42.90
2022-08-20T13:44:16.995Z,42.90
2022-08-20T13:46:43.789Z,42.30
2022-08-20T13:49:10.619Z,42.20
2022-08-20T13:51:37.341Z,42.70
2022-08-20T13:54:04.138Z,42.50
2022-08-20T13:56:30.895Z,42.20
2022-08-20T13:58:57.624Z,41.20
2022-08-20T14:01:24.449Z,39.80
2022-08-20T14:03:51.431Z,39.70
2022-08-20T14:06:18.745Z,39.10
2022-08-20T14:08:45.484Z,38.90
2022-08-20T14:11:17.655Z,38.00
2022-08-20T14:13:44.843Z,38.30
2022-08-20T14:16:21.125Z,38.40
2022-08-20T14:18:56.263Z,37.70
2022-08-20T14:21:23.097Z,37.80
2022-08-20T14:23:49.948Z,38.00
2022-08-20T14:26:16.821Z,37.50
2022-08-20T14:28:43.721Z,37.20
2022-08-20T14:31:10.609Z,37.20
2022-08-20T14:33:41.265Z,37.00
2022-08-20T14:36:10.742Z,36.90
2022-08-20T14:38:41.490Z,36.90
2022-08-20T14:41:08.262Z,36.70
2022-08-20T14:43:35.006Z,36.90
2022-08-20T14:46:01.761Z,36.20
2022-08-20T14:48:28.779Z,36.10
2022-08-20T14:50:55.990Z,36.30
2022-08-20T14:53:22.723Z,35.70
2022-08-20T14:55:49.413Z,35.10
2022-08-20T14:58:17.064Z,35.40
2022-08-20T15:00:44.131Z,35.30
2022-08-20T15:03:11.169Z,35.50
2022-08-20T15:05:39.446Z,34.80
2022-08-20T15:08:07.497Z,34.20
2022-08-20T15:10:34.414Z,34.20
2022-08-20T15:13:01.253Z,34.50
2022-08-20T15:15:28.415Z,34.40
2022-08-20T15:17:56.559Z,34.50
2022-08-20T15:20:25.485Z,34.90
2022-08-20T15:22:52.277Z,34.50
2022-08-20T15:25:20.606Z,34.80
2022-08-20T15:27:47.771Z,34.90
2022-08-20T15:30:18.928Z,35.20
2022-08-20T15:32:45.861Z,34.20
2022-08-20T15:35:13.344Z,34.70
2022-08-20T15:37:48.918Z,34.80
2022-08-20T15:40:23.412Z,35.40
2022-08-20T15:42:52.592Z,35.80
2022-08-20T15:45:21.914Z,35.70
2022-08-20T15:48:00.378Z,35.70
2022-08-20T15:50:58.210Z,35.50
2022-08-20T15:53:32.462Z,35.80
2022-08-20T15:56:08.799Z,35.60
2022-08-20T15:59:01.317Z,35.20
2022-08-20T16:01:35.968Z,34.80
2022-08-20T16:04:08.807Z,34.90
2022-08-20T16:06:35.646Z,35.40
2022-08-20T16:09:08.705Z,35.60
2022-08-20T16:11:38.493Z,35.70
2022-08-20T16:14:12.860Z,36.10
2022-08-20T16:16:43.079Z,36.10
2022-08-20T16:19:12.541Z,36.00
2022-08-20T16:21:41.202Z,36.30
2022-08-20T16:24:12.784Z,36.60
2022-08-20T16:26:54.431Z,36.90
2022-08-20T16:29:24.042Z,37.20
2022-08-20T16:31:55.530Z,37.20
2022-08-20T16:34:35.365Z,37.00
2022-08-20T16:37:10.232Z,37.10
2022-08-20T16:39:51.148Z,37.20
2022-08-20T16:42:20.789Z,36.90
2022-08-20T16:44:49.341Z,37.20
2022-08-20T16:47:18.207Z,37.60
2022-08-20T16:49:56.268Z,37.70
2022-08-20T16:52:23.125Z,37.80
2022-08-20T16:54:49.957Z,38.20
2022-08-20T16:57:18.481Z,38.00
2022-08-20T16:59:57.601Z,38.10
2022-08-20T17:02:24.908Z,38.10
2022-08-20T17:04:59.384Z,38.30
2022-08-20T17:07:43.164Z,38.60
2022-08-20T17:10:12.860Z,38.60
2022-08-20T17:12:39.719Z,38.70
2022-08-20T17:15:06.956Z,38.90
2022-08-20T17:17:38.233Z,38.90
2022-08-20T17:20:19.961Z,39.10
2022-08-20T17:26:01.679Z,39.10
2022-08-20T17:28:31.987Z,39.40
2022-08-20T17:31:02.045Z,39.60
2022-08-20T17:33:34.579Z,39.70
2022-08-20T17:36:04.359Z,40.00
2022-08-20T17:38:40.081Z,40.20
2022-08-20T17:41:15.215Z,40.30
2022-08-20T17:43:44.162Z,40.70
2022-08-20T17:46:12.626Z,40.70
2022-08-20T17:48:43.881Z,40.90
2022-08-20T17:51:18.267Z,41.10
2022-08-20T17:53:49.800Z,41.10
2022-08-20T17:56:21.416Z,41.20
2022-08-20T17:58:54.674Z,41.20
2022-08-20T18:01:23.265Z,41.30
2022-08-20T18:03:51.106Z,41.70
2022-08-20T18:06:19.580Z,41.80
2022-08-20T18:08:59.397Z,41.70
2022-08-20T18:11:29.558Z,41.80
2022-08-20T18:14:17.890Z,42.10
2022-08-20T18:16:54.886Z,41.90
2022-08-20T18:19:35.541Z,42.00
2022-08-20T18:22:02.288Z,41.90
2022-08-20T18:25:04.769Z,41.90
2022-08-20T18:27:42.229Z,42.00
2022-08-20T18:30:19.506Z,42.00
2022-08-20T18:32:46.936Z,42.20
2022-08-20T18:35:31.914Z,42.10
2022-08-20T18:38:12.103Z,42.10
2022-08-20T18:40:41.507Z,42.20
2022-08-20T18:43:12.952Z,42.10
2022-08-20T18:45:39.803Z,42.20
2022-08-20T18:48:06.975Z,42.30
2022-08-20T18:50:33.697Z,42.40
2022-08-20T18:53:14.894Z,42.60
2022-08-20T18:55:46.837Z,42.80
2022-08-20T18:58:29.575Z,43.20
2022-08-20T19:00:56.332Z,43.50
2022-08-20T19:03:29.252Z,43.80
2022-08-20T19:06:15.030Z,44.10
2022-08-20T19:09:01.142Z,44.70
2022-08-20T19:11:46.459Z,45.00
2022-08-20T19:14:19.124Z,45.50
2022-08-20T19:16:48.979Z,46.00
2022-08-20T19:19:17.059Z,46.50
2022-08-20T19:21:43.949Z,46.90
2022-08-20T19:24:12.571Z,47.30
2022-08-20T19:26:44.009Z,47.80
2022-08-20T19:29:17.338Z,48.20
2022-08-20T19:31:44.128Z,48.60
2022-08-20T19:34:22.350Z,48.90
2022-08-20T19:36:53.843Z,49.10
2022-08-20T19:39:21.621Z,49.30
2022-08-20T19:42:02.947Z,49.70
2022-08-20T19:44:53.433Z,50.00
2022-08-20T19:47:27.213Z,50.20
2022-08-20T19:49:58.501Z,50.40
2022-08-20T19:52:33.491Z,50.50
2022-08-20T19:55:04.433Z,50.80
2022-08-20T19:57:31.756Z,51.00
2022-08-20T20:00:08.091Z,51.30
2022-08-20T20:02:35.021Z,51.60
2022-08-20T20:05:06.250Z,51.70
2022-08-20T20:07:38.794Z,51.90
2022-08-20T20:10:07.989Z,52.00
2022-08-20T20:12:35.597Z,52.30
2022-08-20T20:15:02.968Z,52.50
2022-08-20T20:17:33.518Z,52.70
2022-08-20T20:20:02.329Z,52.80
2022-08-20T20:22:33.403Z,53.00
2022-08-20T20:25:13.570Z,53.10
2022-08-20T20:27:40.831Z,53.30
2022-08-20T20:30:10.564Z,53.60
2022-08-20T20:32:41.184Z,53.80
2022-08-20T20:35:08.083Z,54.10
2022-08-20T20:37:50.231Z,54.30
2022-08-20T20:40:23.232Z,54.50
2022-08-20T20:43:07.089Z,54.70
2022-08-20T20:45:36.474Z,55.00
2022-08-20T20:48:33.131Z,55.10
2022-08-20T21:31:16.891Z,57.80
2022-08-20T21:33:43.739Z,57.80
2022-08-20T21:36:10.414Z,58.00
2022-08-20T21:38:37.235Z,58.10
2022-08-20T21:41:04.099Z,58.20
2022-08-20T21:43:32.730Z,58.40
2022-08-20T21:46:01.441Z,58.50
2022-08-20T21:48:29.140Z,58.70
2022-08-20T21:50:55.915Z,59.00
2022-08-20T21:53:22.862Z,59.20
2022-08-20T21:55:49.804Z,59.30
2022-08-20T21:58:17.782Z,59.40
2022-08-20T22:00:53.778Z,59.40
2022-08-20T22:03:22.295Z,59.30
2022-08-20T22:05:50.311Z,59.30
2022-08-20T22:08:17.706Z,59.40
2022-08-20T22:10:44.645Z,59.50
2022-08-20T22:13:11.586Z,59.60
2022-08-20T22:15:38.448Z,59.80
2022-08-20T22:18:05.328Z,59.90
2022-08-20T22:20:32.848Z,59.90
2022-08-20T22:23:00.974Z,60.00
2022-08-20T22:25:28.207Z,60.00
2022-08-20T22:27:54.993Z,60.10
2022-08-20T22:30:21.827Z,60.10
2022-08-20T22:32:51.669Z,60.20
2022-08-20T22:35:19.738Z,60.20
2022-08-20T22:37:46.520Z,60.30
2022-08-20T22:40:13.449Z,60.40
2022-08-20T22:42:40.264Z,60.30
2022-08-20T22:45:14.752Z,60.40
2022-08-20T22:47:42.453Z,60.30
2022-08-20T22:50:10.190Z,60.30
2022-08-20T22:52:38.249Z,60.40
2022-08-20T22:55:06.057Z,60.50
2022-08-20T22:57:34.286Z,60.60
2022-08-20T23:00:01.536Z,60.70
2022-08-20T23:02:28.343Z,60.90
2022-08-20T23:04:55.146Z,61.00
2022-08-20T23:07:22.092Z,61.10
2022-08-20T23:09:48.871Z,61.20
2022-08-20T23:12:15.699Z,61.20
2022-08-20T23:14:42.679Z,61.20
2022-08-20T23:17:14.109Z,61.20
2022-08-20T23:19:42.320Z,61.10
2022-08-20T23:22:09.190Z,61.10
2022-08-20T23:24:37.236Z,61.10
2022-08-20T23:27:07.000Z,61.10
2022-08-20T23:29:34.286Z,61.20
2022-08-20T23:32:01.131Z,61.30
2022-08-20T23:34:28.050Z,61.40
2022-08-20T23:36:55.641Z,61.50
2022-08-20T23:39:22.674Z,61.60
2022-08-20T23:41:49.441Z,61.70
2022-08-20T23:44:26.067Z,61.70
2022-08-20T23:46:57.911Z,61.80
2022-08-20T23:49:25.011Z,62.00
2022-08-20T23:51:51.789Z,62.20
2022-08-20T23:54:18.617Z,62.40
2022-08-20T23:56:45.420Z,62.50
2022-08-20T23:59:12.205Z,62.80
